createdAt,value
2022-11-10T00:00:20.099Z,5
2022-11-10T00:05:20.085Z,6
2022-11-10T00:10:20.760Z,6
2022-11-10T00:15:20.085Z,6
2022-11-10T00:20:20.107Z,5
2022-11-10T00:25:20.125Z,6
2022-11-10T00:30:20.088Z,5
2022-11-10T00:35:20.098Z,7
2022-11-10T00:40:20.093Z,7
2022-11-10T00:45:20.637Z,7
2022-11-10T00:50:17.089Z,6
2022-11-10T00:55:20.151Z,7
2022-11-10T01:00:17.145Z,7
2022-11-10T01:05:17.156Z,8
2022-11-10T01:10:20.128Z,11
2022-11-10T01:15:26.017Z,7
2022-11-10T01:20:20.780Z,7
2022-11-10T01:25:20.154Z,9
2022-11-10T01:30:17.062Z,10
2022-11-10T01:35:17.194Z,7
2022-11-10T01:40:17.293Z,7
2022-11-10T01:45:20.167Z,6
2022-11-10T01:50:20.128Z,8
2022-11-10T01:55:20.709Z,7
2022-11-10T02:00:20.147Z,8
2022-11-10T02:05:20.114Z,7
2022-11-10T02:10:17.095Z,10
2022-11-10T02:15:20.150Z,8
2022-11-10T02:20:17.208Z,9
2022-11-10T02:25:17.200Z,6
2022-11-10T02:30:17.802Z,9
2022-11-10T02:35:17.196Z,9
2022-11-10T02:40:20.153Z,9
2022-11-10T02:45:20.146Z,8
2022-11-10T02:50:20.147Z,8
2022-11-10T02:55:20.162Z,9
2022-11-10T03:00:20.809Z,13
2022-11-10T03:05:20.133Z,6
2022-11-10T03:10:20.132Z,10
2022-11-10T03:15:20.125Z,6
2022-11-10T03:20:20.165Z,9
2022-11-10T03:25:17.034Z,9
2022-11-10T03:30:17.064Z,6
2022-11-10T03:35:20.813Z,6
2022-11-10T03:40:17.213Z,4
2022-11-10T03:45:17.245Z,6
2022-11-10T03:50:17.237Z,4
2022-11-10T03:55:17.215Z,4
2022-11-10T04:00:20.196Z,5
2022-11-10T04:05:20.237Z,6
2022-11-10T04:10:20.719Z,5
2022-11-10T04:15:20.187Z,4
2022-11-10T04:20:17.234Z,5
2022-11-10T04:25:17.222Z,5
2022-11-10T04:30:17.240Z,6
2022-11-10T04:35:20.242Z,4
2022-11-10T04:40:20.236Z,5
2022-11-10T04:45:20.865Z,5
2022-11-10T04:50:17.216Z,5
2022-11-10T04:55:20.254Z,5
2022-11-10T05:00:16.533Z,4
2022-11-10T05:05:19.492Z,6
2022-11-10T05:10:16.481Z,5
2022-11-10T05:15:16.509Z,7
2022-11-10T05:20:17.179Z,6
2022-11-10T05:25:16.528Z,8
2022-11-10T05:30:19.527Z,8
2022-11-10T05:35:16.303Z,8
2022-11-10T05:40:19.522Z,4
2022-11-10T05:45:19.466Z,10
2022-11-10T05:50:20.184Z,10
2022-11-10T05:55:19.476Z,7
2022-11-10T06:00:19.513Z,9
2022-11-10T06:05:16.551Z,7
2022-11-10T06:10:16.522Z,6
2022-11-10T06:15:16.561Z,8
2022-11-10T06:20:19.527Z,8
2022-11-10T06:25:17.123Z,8
2022-11-10T06:30:16.542Z,6
2022-11-10T06:35:19.637Z,6
2022-11-10T06:40:19.516Z,6
2022-11-10T06:45:19.488Z,7
2022-11-10T06:50:19.526Z,5
2022-11-10T06:55:16.560Z,6
2022-11-10T07:00:17.209Z,6
2022-11-10T07:05:16.528Z,7
2022-11-10T07:10:19.543Z,6
2022-11-10T07:15:19.534Z,6
2022-11-10T07:20:19.515Z,7
2022-11-10T07:25:19.499Z,5
2022-11-10T07:30:16.566Z,6
2022-11-10T07:35:17.071Z,7
2022-11-10T07:40:19.563Z,7
2022-11-10T07:45:19.518Z,7
2022-11-10T07:50:19.528Z,7
2022-11-10T07:55:19.514Z,6
2022-11-10T08:00:19.556Z,8
2022-11-10T08:05:16.558Z,6
2022-11-10T08:10:17.116Z,5
2022-11-10T08:15:19.543Z,6
2022-11-10T08:20:19.551Z,7
2022-11-10T08:25:19.555Z,6
2022-11-10T08:30:19.558Z,7
2022-11-10T08:35:19.533Z,8
2022-11-10T08:40:20.075Z,5
2022-11-10T08:45:16.561Z,6
2022-11-10T08:50:16.604Z,5
2022-11-10T08:55:19.649Z,6
2022-11-10T09:00:16.601Z,8
2022-11-10T09:05:19.568Z,6
2022-11-10T09:10:19.543Z,5
2022-11-10T09:15:20.223Z,5
2022-11-10T09:20:19.570Z,7
2022-11-10T09:25:19.559Z,7
2022-11-10T09:30:18.247Z,9
2022-11-10T09:35:19.562Z,7
2022-11-10T09:40:16.612Z,4
2022-11-10T09:45:19.601Z,6
2022-11-10T09:50:20.415Z,6
2022-11-10T09:55:19.576Z,7
2022-11-10T10:00:19.694Z,5
2022-11-10T10:05:16.610Z,5
2022-11-10T10:10:17.782Z,7
2022-11-10T10:15:19.613Z,8
2022-11-10T10:20:19.695Z,9
2022-11-10T10:25:20.138Z,9
2022-11-10T10:30:19.695Z,7
2022-11-10T10:35:16.652Z,8
2022-11-10T10:40:16.645Z,9
2022-11-10T10:45:16.725Z,9
2022-11-10T10:50:16.623Z,10
2022-11-10T10:55:19.661Z,5
2022-11-10T11:00:20.146Z,9
2022-11-10T11:05:19.579Z,5
2022-11-10T11:10:19.602Z,11
2022-11-10T11:15:19.607Z,11
2022-11-10T11:20:19.618Z,6
2022-11-10T11:25:16.635Z,12
2022-11-10T11:30:16.636Z,7
2022-11-10T11:35:20.315Z,6
2022-11-10T11:40:16.655Z,7
2022-11-10T11:45:16.666Z,9
2022-11-10T11:50:19.817Z,9
2022-11-10T11:55:19.657Z,9
2022-11-10T12:00:19.666Z,9
2022-11-10T12:05:19.703Z,6
2022-11-10T12:10:17.042Z,6
2022-11-10T12:15:16.644Z,9
2022-11-10T12:20:16.696Z,7
2022-11-10T12:25:19.690Z,9
2022-11-10T12:30:19.711Z,7
2022-11-10T12:35:19.606Z,7
2022-11-10T12:40:20.177Z,8
2022-11-10T12:45:16.665Z,8
2022-11-10T12:50:16.682Z,7
2022-11-10T12:55:19.721Z,12
2022-11-10T13:00:26.707Z,12
2022-11-10T13:05:19.605Z,10
2022-11-10T13:10:16.663Z,7
2022-11-10T13:15:46.652Z,7
2022-11-10T13:20:30.912Z,8
2022-11-10T13:25:19.658Z,7
2022-11-10T13:30:19.670Z,10
2022-11-10T13:35:19.681Z,10
2022-11-10T13:40:16.740Z,9
2022-11-10T13:45:16.692Z,10
2022-11-10T13:50:17.375Z,9
2022-11-10T13:55:19.800Z,9
2022-11-10T14:00:19.714Z,10
2022-11-10T14:05:19.674Z,12
2022-11-10T14:10:19.726Z,9
2022-11-10T14:15:16.679Z,10
2022-11-10T14:20:16.722Z,11
2022-11-10T14:25:20.408Z,6
2022-11-10T14:30:19.692Z,7
2022-11-10T14:35:19.673Z,16
2022-11-10T14:40:19.694Z,13
2022-11-10T14:45:19.730Z,13
2022-11-10T14:50:16.701Z,11
2022-11-10T14:55:16.729Z,15
2022-11-10T15:00:17.286Z,12
2022-11-10T15:05:19.748Z,15
2022-11-10T15:10:19.703Z,10
2022-11-10T15:15:19.699Z,11
2022-11-10T15:20:19.707Z,16
2022-11-10T15:25:16.796Z,11
2022-11-10T15:30:20.506Z,20
2022-11-10T15:35:16.743Z,13
2022-11-10T15:40:19.738Z,14
2022-11-10T15:45:20.000Z,15
2022-11-10T15:50:19.738Z,8
2022-11-10T15:55:19.701Z,12
2022-11-10T16:00:16.758Z,8
2022-11-10T16:05:17.304Z,12
2022-11-10T16:10:19.742Z,12
2022-11-10T16:15:19.738Z,9
2022-11-10T16:20:19.753Z,10
2022-11-10T16:25:25.155Z,13
2022-11-10T16:30:19.734Z,12
2022-11-10T16:35:20.437Z,15
2022-11-10T16:40:16.802Z,14
2022-11-10T16:45:16.772Z,8
2022-11-10T16:50:16.764Z,14
2022-11-10T16:55:19.754Z,12
2022-11-10T17:00:19.736Z,12
2022-11-10T17:05:19.761Z,15
2022-11-10T17:10:20.318Z,14
2022-11-10T17:15:19.770Z,14
2022-11-10T17:20:19.770Z,13
2022-11-10T17:25:16.779Z,13
2022-11-10T17:30:19.791Z,20
2022-11-10T17:35:16.782Z,9
2022-11-10T17:40:19.767Z,15
2022-11-10T17:45:20.479Z,14
2022-11-10T17:50:19.763Z,12
2022-11-10T17:55:19.789Z,12
2022-11-10T18:00:19.775Z,13
2022-11-10T18:05:19.836Z,14
2022-11-10T18:10:16.837Z,14
2022-11-10T18:15:16.809Z,13
2022-11-10T18:20:17.368Z,13
2022-11-10T18:25:16.822Z,12
2022-11-10T18:30:19.842Z,13
2022-11-10T18:35:19.823Z,14
2022-11-10T18:40:19.770Z,12
2022-11-10T18:45:19.765Z,10
2022-11-10T18:50:20.360Z,12
2022-11-10T18:55:19.784Z,12
2022-11-10T19:00:16.821Z,12
2022-11-10T19:05:16.820Z,12
2022-11-10T19:10:16.812Z,9
2022-11-10T19:15:19.836Z,15
2022-11-10T19:20:19.778Z,13
2022-11-10T19:25:20.332Z,9
2022-11-10T19:30:19.765Z,10
2022-11-10T19:35:19.825Z,13
2022-11-10T19:40:19.843Z,11
2022-11-10T19:45:16.822Z,8
2022-11-10T19:50:16.858Z,9
2022-11-10T19:55:16.887Z,9
2022-11-10T20:00:20.529Z,11
2022-11-10T20:05:19.852Z,8
2022-11-10T20:10:19.859Z,15
2022-11-10T20:15:19.812Z,12
2022-11-10T20:20:19.795Z,14
2022-11-10T20:25:19.804Z,12
2022-11-10T20:30:23.644Z,13
2022-11-10T20:35:17.526Z,13
2022-11-10T20:40:43.060Z,9
2022-11-10T20:45:16.858Z,11
2022-11-10T20:50:24.234Z,12
2022-11-10T20:55:43.593Z,12
2022-11-10T21:00:19.929Z,10
2022-11-10T21:05:20.542Z,7
2022-11-10T21:10:19.833Z,8
2022-11-10T21:15:19.825Z,6
2022-11-10T21:20:16.757Z,7
2022-11-10T21:25:17.135Z,6
2022-11-10T21:30:16.933Z,5
2022-11-10T21:35:16.891Z,9
2022-11-10T21:40:20.548Z,10
2022-11-10T21:45:19.840Z,7
2022-11-10T21:50:16.906Z,10
2022-11-10T21:55:19.865Z,10
2022-11-10T22:00:19.901Z,13
2022-11-10T22:05:19.873Z,10
2022-11-10T22:10:19.860Z,10
2022-11-10T22:15:20.537Z,9
2022-11-10T22:20:19.884Z,11
2022-11-10T22:25:19.922Z,7
2022-11-10T22:30:19.888Z,10
2022-11-10T22:35:16.903Z,10
2022-11-10T22:40:19.927Z,11
2022-11-10T22:45:19.911Z,12
2022-11-10T22:50:17.595Z,7
2022-11-10T22:55:19.883Z,7
2022-11-10T23:00:19.902Z,10
2022-11-10T23:05:19.892Z,9
2022-11-10T23:10:19.901Z,9
2022-11-10T23:15:19.867Z,8
2022-11-10T23:20:16.853Z,7
2022-11-10T23:25:20.575Z,8
2022-11-10T23:30:19.915Z,11
2022-11-10T23:35:19.884Z,6
2022-11-10T23:40:16.948Z,7
2022-11-10T23:45:19.893Z,8
2022-11-10T23:50:19.892Z,11
2022-11-10T23:55:19.946Z,5
